Time;durP1;ratioP1;P1;durP2;ratioP2;P2;SDS_P1;SDS_P2;PMS_P1;PMS_P2;Temp;Humidity;BMP_temperature;BMP_pressure;BME280_temperature;BME280_humidity;BME280_pressure;Samples;Min_cycle;Max_cycle;Signal;HPM_P1;HPM_P2
2021/12/07 00:02:15;;;;;;;5.97;4.83;;;4.10;99.90;;;;;;5054410;28;20499;-45
2021/12/07 00:04:43;;;;;;;13.83;4.87;;;4.10;99.90;;;;;;5043637;28;20788;-46
2021/12/07 00:07:11;;;;;;;4.43;3.63;;;4.20;99.90;;;;;;5050149;28;21079;-46
2021/12/07 00:09:38;;;;;;;4.70;4.00;;;4.20;99.90;;;;;;5039270;28;20488;-45
2021/12/07 00:12:06;;;;;;;5.20;3.90;;;4.20;99.90;;;;;;5064462;28;20854;-46
2021/12/07 00:14:38;;;;;;;10.00;3.80;;;4.20;99.90;;;;;;5045582;28;20537;-46
2021/12/07 00:17:05;;;;;;;5.00;4.40;;;4.30;99.90;;;;;;5050341;28;20908;-47
2021/12/07 00:19:32;;;;;;;5.10;4.60;;;4.30;99.90;;;;;;5049185;28;20483;-46
2021/12/07 00:21:59;;;;;;;4.10;3.70;;;4.30;99.90;;;;;;5041781;28;20486;-46
2021/12/07 00:24:27;;;;;;;4.97;3.73;;;4.30;99.90;;;;;;5051832;28;20487;-45
2021/12/07 00:26:54;;;;;;;4.53;4.17;;;4.30;99.90;;;;;;5059572;28;20885;-46
2021/12/07 00:29:21;;;;;;;2.67;2.20;;;4.30;99.90;;;;;;5050326;28;20491;-45
2021/12/07 00:31:54;;;;;;;4.43;4.03;;;4.30;99.90;;;;;;5055915;28;20484;-45
2021/12/07 00:34:39;;;;;;;4.23;3.30;;;4.40;99.90;;;;;;5041493;28;20553;-45
2021/12/07 00:37:06;;;;;;;5.23;3.53;;;4.30;99.90;;;;;;5041543;28;20490;-44
2021/12/07 00:39:34;;;;;;;2.90;2.60;;;4.40;99.90;;;;;;5034915;28;20483;-45
2021/12/07 00:42:01;;;;;;;3.93;3.53;;;4.50;99.90;;;;;;5068583;28;20476;-46
2021/12/07 00:44:29;;;;;;;4.73;3.47;;;4.50;99.90;;;;;;5041438;28;20849;-46
2021/12/07 00:46:56;;;;;;;2.63;1.90;;;4.60;99.90;;;;;;5057654;28;20478;-45
2021/12/07 00:49:23;;;;;;;5.40;3.40;;;4.60;99.90;;;;;;5047678;28;20482;-45
2021/12/07 00:51:50;;;;;;;2.73;2.53;;;4.70;99.90;;;;;;5052246;28;20502;-45
2021/12/07 00:54:17;;;;;;;2.63;2.43;;;4.70;99.90;;;;;;5075262;28;20479;-48
2021/12/07 00:56:45;;;;;;;2.20;2.00;;;4.70;99.90;;;;;;5076280;28;20490;-44
2021/12/07 00:59:12;;;;;;;5.03;4.63;;;4.70;99.90;;;;;;5081407;28;20471;-45
2021/12/07 01:01:39;;;;;;;2.63;2.10;;;4.70;99.90;;;;;;5074469;28;20490;-45
2021/12/07 01:04:07;;;;;;;3.63;2.63;;;4.70;99.90;;;;;;5067896;28;20506;-46
2021/12/07 01:06:45;;;;;;;2.30;2.10;;;4.70;99.90;;;;;;5055637;28;20498;-45
2021/12/07 01:09:24;;;;;;;3.67;3.30;;;4.60;99.90;;;;;;5043054;28;20477;-46
2021/12/07 01:25:41;;;;;;;3.20;2.90;;;4.80;99.90;;;;;;5039818;28;20483;-46
2021/12/07 01:28:20;;;;;;;2.20;1.70;;;4.90;99.90;;;;;;5055858;28;20487;-46
2021/12/07 01:30:53;;;;;;;3.77;1.93;;;4.90;99.90;;;;;;5066990;28;20506;-45
2021/12/07 01:33:39;;;;;;;2.80;2.50;;;4.90;99.90;;;;;;5060628;28;20500;-46
2021/12/07 01:36:40;;;;;;;4.10;1.97;;;5.10;99.90;;;;;;5058869;28;20487;-46
2021/12/07 01:45:01;;;;;;;1.80;1.07;;;5.20;99.90;;;;;;5080477;28;20524;-46
2021/12/07 01:47:46;;;;;;;1.70;1.00;;;5.20;99.90;;;;;;5073199;28;20484;-46
2021/12/07 01:50:29;;;;;;;4.07;1.33;;;5.20;99.90;;;;;;5055654;28;20475;-46
2021/12/07 01:53:16;;;;;;;1.53;0.77;;;5.20;99.90;;;;;;5083491;28;20466;-45
2021/12/07 02:01:14;;;;;;;3.50;1.10;;;5.10;99.90;;;;;;5058630;28;20509;-46
2021/12/07 02:03:41;;;;;;;3.60;0.97;;;5.10;99.90;;;;;;5056668;28;20488;-46
2021/12/07 02:06:10;;;;;;;3.97;1.50;;;5.10;99.90;;;;;;5057425;28;20477;-46
2021/12/07 02:08:36;;;;;;;1.90;1.60;;;5.10;99.90;;;;;;5038434;28;20491;-45
2021/12/07 02:11:03;;;;;;;1.80;0.97;;;4.90;99.90;;;;;;5038788;28;20488;-45
2021/12/07 02:16:19;;;;;;;2.23;1.23;;;5.00;99.90;;;;;;5035989;28;20605;-45
2021/12/07 02:18:45;;;;;;;1.87;1.07;;;5.00;99.90;;;;;;5032005;28;20468;-44
2021/12/07 02:21:25;;;;;;;2.40;1.30;;;5.10;99.90;;;;;;5033212;28;20481;-45
2021/12/07 02:23:52;;;;;;;2.47;1.00;;;5.00;99.90;;;;;;5069841;28;20474;-47
2021/12/07 02:26:20;;;;;;;9.43;1.00;;;5.00;99.90;;;;;;5057707;28;20509;-45
2021/12/07 02:28:49;;;;;;;1.60;1.03;;;5.00;99.90;;;;;;5065750;28;20468;-45
2021/12/07 02:31:16;;;;;;;2.43;1.90;;;5.00;99.90;;;;;;5057914;28;20965;-45
2021/12/07 02:33:43;;;;;;;2.27;1.20;;;5.00;99.90;;;;;;5057113;28;20481;-45
2021/12/07 02:36:10;;;;;;;4.10;1.17;;;5.00;99.90;;;;;;5041735;28;20506;-47
2021/12/07 02:38:38;;;;;;;2.97;1.40;;;5.10;99.90;;;;;;5051414;28;20491;-47
2021/12/07 02:41:05;;;;;;;6.53;1.23;;;5.10;99.90;;;;;;5079087;28;20484;-47
2021/12/07 02:43:32;;;;;;;5.47;2.40;;;5.10;99.90;;;;;;5061677;28;20486;-47
2021/12/07 02:45:59;;;;;;;2.80;1.33;;;5.20;99.90;;;;;;5059725;28;21030;-47
2021/12/07 02:48:26;;;;;;;3.33;1.10;;;5.20;99.90;;;;;;5057406;28;20487;-48
2021/12/07 02:50:52;;;;;;;3.60;1.80;;;5.20;99.90;;;;;;5063985;28;20475;-47
2021/12/07 02:53:24;;;;;;;4.90;1.80;;;5.30;99.90;;;;;;5071153;28;20480;-47
2021/12/07 02:55:52;;;;;;;6.20;1.30;;;5.30;99.90;;;;;;5084287;28;20489;-48
2021/12/07 02:58:19;;;;;;;3.07;1.50;;;5.20;99.90;;;;;;5064291;28;21323;-47
2021/12/07 03:00:52;;;;;;;4.47;1.30;;;5.20;99.90;;;;;;5049347;28;20488;-46
2021/12/07 03:03:19;;;;;;;3.93;1.20;;;5.20;99.90;;;;;;5068859;28;21066;-47
2021/12/07 03:05:53;;;;;;;3.57;1.97;;;5.20;99.90;;;;;;5055760;28;20499;-47
2021/12/07 03:08:58;;;;;;;1.97;1.33;;;5.20;99.90;;;;;;5038925;28;20848;-47
2021/12/07 03:27:54;;;;;;;5.50;3.47;;;5.20;99.90;;;;;;5032167;28;20513;-47
2021/12/07 03:30:22;;;;;;;3.30;2.30;;;5.20;99.90;;;;;;5055192;28;20633;-48
2021/12/07 03:32:49;;;;;;;4.23;2.13;;;5.30;99.90;;;;;;5067508;28;20878;-46
2021/12/07 03:35:16;;;;;;;3.67;2.77;;;5.30;99.90;;;;;;5049624;28;21017;-47
2021/12/07 03:37:43;;;;;;;4.10;2.00;;;5.30;99.90;;;;;;5055066;28;20981;-47
2021/12/07 03:40:12;;;;;;;3.07;1.63;;;5.30;99.90;;;;;;5085974;28;20473;-47
2021/12/07 03:42:39;;;;;;;6.20;1.77;;;5.40;99.90;;;;;;5066123;28;21503;-47
2021/12/07 03:45:09;;;;;;;4.27;2.47;;;5.50;99.90;;;;;;5078779;28;20509;-47
2021/12/07 03:47:36;;;;;;;4.80;3.20;;;5.40;99.90;;;;;;5072931;28;20489;-48
2021/12/07 03:50:03;;;;;;;5.20;2.57;;;5.40;99.90;;;;;;5074839;28;20505;-47
2021/12/07 03:52:29;;;;;;;12.20;2.40;;;5.50;99.90;;;;;;5063646;28;20487;-46
2021/12/07 03:54:56;;;;;;;7.00;3.60;;;5.50;99.90;;;;;;5073007;28;20490;-50
2021/12/07 03:57:23;;;;;;;8.10;2.20;;;5.60;99.90;;;;;;5069538;28;20490;-47
2021/12/07 03:59:50;;;;;;;7.13;1.90;;;5.50;99.90;;;;;;5056421;28;20489;-46
2021/12/07 04:09:03;;;;;;;3.67;2.20;;;5.50;99.90;;;;;;5047788;28;20469;-46
2021/12/07 04:11:30;;;;;;;4.73;2.27;;;5.50;99.90;;;;;;5041050;28;20481;-47
2021/12/07 04:13:56;;;;;;;4.43;2.40;;;5.50;99.90;;;;;;5043197;28;20487;-47
2021/12/07 04:16:23;;;;;;;5.50;3.50;;;5.40;99.90;;;;;;5040243;28;21373;-48
2021/12/07 04:18:50;;;;;;;5.63;3.43;;;5.50;99.90;;;;;;5051126;28;20537;-46
2021/12/07 04:21:17;;;;;;;5.30;2.97;;;5.50;99.90;;;;;;5054598;28;20487;-46
2021/12/07 04:23:44;;;;;;;5.50;2.60;;;5.50;99.90;;;;;;5061836;28;20492;-47
2021/12/07 04:26:13;;;;;;;5.57;1.93;;;5.50;99.90;;;;;;5063651;28;21281;-47
2021/12/07 04:28:41;;;;;;;9.33;2.40;;;5.50;99.90;;;;;;5060025;28;20497;-47
2021/12/07 04:31:09;;;;;;;7.80;2.60;;;5.50;99.90;;;;;;5061144;28;20478;-47
2021/12/07 04:33:36;;;;;;;9.73;1.80;;;5.60;99.90;;;;;;5060302;28;21020;-48
2021/12/07 04:36:04;;;;;;;10.40;2.80;;;5.50;99.90;;;;;;5063765;28;20480;-46
2021/12/07 04:38:30;;;;;;;6.10;2.00;;;5.50;99.90;;;;;;5069943;28;20472;-55
2021/12/07 04:40:57;;;;;;;4.13;1.80;;;5.40;99.90;;;;;;5043423;28;20479;-47
2021/12/07 04:43:25;;;;;;;10.67;2.47;;;5.50;99.90;;;;;;5043256;28;20489;-48
2021/12/07 04:46:02;;;;;;;3.10;2.00;;;5.50;99.90;;;;;;5043556;28;20487;-47
2021/12/07 04:59:27;;;;;;;13.13;3.67;;;5.70;99.90;;;;;;5063461;28;20513;-47
2021/12/07 05:01:54;;;;;;;6.77;3.20;;;5.70;99.90;;;;;;5053694;28;21031;-47
2021/12/07 05:04:25;;;;;;;4.10;2.50;;;5.70;99.90;;;;;;5040157;28;20485;-47
2021/12/07 05:06:58;;;;;;;4.60;1.57;;;5.70;99.90;;;;;;5051986;28;20565;-45
2021/12/07 05:09:50;;;;;;;3.07;2.03;;;5.70;99.90;;;;;;5064636;28;20493;-46
2021/12/07 05:12:28;;;;;;;15.30;2.70;;;5.60;99.90;;;;;;5073880;28;20577;-47
2021/12/07 05:18:35;;;;;;;6.10;2.70;;;5.60;99.90;;;;;;5006021;28;20530;-47
2021/12/07 05:23:57;;;;;;;8.73;2.10;;;5.60;99.90;;;;;;5061475;28;20475;-46
2021/12/07 05:34:51;;;;;;;6.37;1.47;;;5.60;99.90;;;;;;5054942;28;20495;-47
2021/12/07 05:40:07;;;;;;;4.20;2.83;;;5.50;99.90;;;;;;5042184;28;21039;-48
2021/12/07 05:42:35;;;;;;;8.10;2.40;;;5.40;99.90;;;;;;5078618;28;20489;-47
2021/12/07 05:45:02;;;;;;;7.47;3.50;;;5.40;99.90;;;;;;5058957;28;20479;-46
2021/12/07 05:47:28;;;;;;;4.97;2.40;;;5.40;99.90;;;;;;5056368;28;20979;-47
2021/12/07 05:49:56;;;;;;;10.43;2.07;;;5.40;99.90;;;;;;5059161;28;20492;-47
2021/12/07 05:52:23;;;;;;;4.43;2.60;;;5.30;99.90;;;;;;5070377;28;20476;-47
2021/12/07 05:54:50;;;;;;;7.93;2.50;;;5.20;99.90;;;;;;5060691;28;20489;-47
2021/12/07 05:57:17;;;;;;;7.63;2.53;;;5.20;99.90;;;;;;5050869;28;20486;-47
2021/12/07 05:59:44;;;;;;;6.57;2.10;;;5.20;99.90;;;;;;5061496;28;20488;-47
2021/12/07 06:02:10;;;;;;;3.33;2.80;;;5.20;99.90;;;;;;5062992;28;20487;-47
2021/12/07 06:04:37;;;;;;;8.93;3.30;;;5.20;99.90;;;;;;5053635;28;20488;-47
2021/12/07 06:07:05;;;;;;;7.83;3.13;;;5.20;99.90;;;;;;5054096;28;20499;-46
2021/12/07 06:09:32;;;;;;;8.90;2.50;;;5.20;99.90;;;;;;5082188;28;20963;-46
2021/12/07 06:11:59;;;;;;;10.67;2.37;;;5.20;99.90;;;;;;5057967;28;20491;-47
2021/12/07 06:14:31;;;;;;;10.00;2.30;;;5.20;99.90;;;;;;5057003;28;20981;-47
2021/12/07 06:16:59;;;;;;;11.27;2.90;;;5.10;99.90;;;;;;5060182;28;20483;-47
2021/12/07 06:19:25;;;;;;;11.73;3.10;;;5.10;99.90;;;;;;5057344;28;20484;-47
2021/12/07 06:21:52;;;;;;;6.50;2.27;;;5.10;99.90;;;;;;5052189;28;20488;-48
2021/12/07 06:24:20;;;;;;;7.40;2.43;;;5.20;99.90;;;;;;5065194;28;21055;-46
2021/12/07 06:26:47;;;;;;;14.23;3.40;;;5.20;99.90;;;;;;5039418;28;20481;-47
2021/12/07 06:29:14;;;;;;;3.63;2.17;;;5.10;99.90;;;;;;5038111;28;20652;-46
2021/12/07 06:31:41;;;;;;;4.93;2.63;;;5.00;99.90;;;;;;5052833;28;20476;-47
2021/12/07 06:34:10;;;;;;;6.17;3.90;;;5.10;99.90;;;;;;5046196;28;20469;-46
2021/12/07 06:36:37;;;;;;;6.10;2.03;;;5.10;99.90;;;;;;5045221;28;21054;-46
2021/12/07 06:39:04;;;;;;;5.87;2.63;;;5.10;99.90;;;;;;5062337;28;20522;-48
2021/12/07 06:41:33;;;;;;;4.90;2.30;;;5.00;99.90;;;;;;5061941;28;20484;-47
2021/12/07 06:44:00;;;;;;;4.87;1.80;;;5.00;99.90;;;;;;5057066;28;20831;-50
2021/12/07 06:46:27;;;;;;;5.60;2.50;;;4.90;99.90;;;;;;5059642;28;20476;-47
2021/12/07 06:52:16;;;;;;;7.60;2.10;;;4.90;99.90;;;;;;5039661;28;20531;-47
2021/12/07 06:54:43;;;;;;;6.70;2.60;;;4.90;99.90;;;;;;5064004;28;20491;-47
2021/12/07 06:57:11;;;;;;;7.60;2.40;;;4.90;99.90;;;;;;5065259;28;20489;-47
2021/12/07 06:59:37;;;;;;;19.20;2.83;;;4.90;99.90;;;;;;5059555;28;20494;-47
2021/12/07 07:02:05;;;;;;;6.37;2.03;;;4.80;99.90;;;;;;5075728;28;20480;-47
2021/12/07 07:04:32;;;;;;;9.33;3.13;;;4.90;99.90;;;;;;5054358;28;21101;-49
2021/12/07 07:06:59;;;;;;;9.23;2.20;;;4.80;99.80;;;;;;5069045;28;20982;-47
2021/12/07 07:09:25;;;;;;;7.53;1.97;;;4.90;99.90;;;;;;5042681;28;20496;-47
2021/12/07 07:11:52;;;;;;;2.20;1.70;;;4.80;99.90;;;;;;5042711;28;20911;-46
2021/12/07 07:14:20;;;;;;;1.80;1.37;;;4.80;99.80;;;;;;5043686;28;20493;-47
2021/12/07 07:16:47;;;;;;;9.23;1.80;;;4.80;99.90;;;;;;5043671;28;20490;-47
2021/12/07 07:19:14;;;;;;;3.73;2.57;;;4.80;99.90;;;;;;5042168;28;20470;-47
2021/12/07 07:21:40;;;;;;;4.90;2.00;;;4.80;99.90;;;;;;5043076;28;20495;-47
2021/12/07 07:24:07;;;;;;;6.27;2.30;;;4.70;99.80;;;;;;5067520;28;20491;-46
2021/12/07 07:26:34;;;;;;;6.03;2.00;;;4.70;99.90;;;;;;5038109;28;20491;-46
2021/12/07 07:29:01;;;;;;;14.83;1.67;;;4.70;99.90;;;;;;5043104;28;20486;-46
2021/12/07 07:31:29;;;;;;;8.40;1.80;;;4.80;99.90;;;;;;5040570;28;20500;-46
2021/12/07 07:33:57;;;;;;;6.53;2.80;;;4.70;99.90;;;;;;5059032;28;20793;-47
2021/12/07 07:36:24;;;;;;;2.63;1.07;;;4.80;99.90;;;;;;5059929;28;20486;-47
2021/12/07 07:38:50;;;;;;;14.53;2.53;;;4.80;99.90;;;;;;5060203;28;20732;-46
2021/12/07 07:41:17;;;;;;;5.40;2.77;;;4.90;99.90;;;;;;5081462;28;20472;-49
2021/12/07 07:43:44;;;;;;;20.10;2.37;;;4.90;99.90;;;;;;5059879;28;20479;-46
2021/12/07 07:46:11;;;;;;;8.03;1.70;;;4.90;99.80;;;;;;5062427;28;20998;-46
2021/12/07 07:48:39;;;;;;;13.47;2.63;;;4.90;99.60;;;;;;5063201;28;20490;-47
2021/12/07 07:51:05;;;;;;;5.63;2.00;;;4.90;99.60;;;;;;5062051;28;20494;-47
2021/12/07 07:53:32;;;;;;;6.20;2.30;;;4.90;99.50;;;;;;5075743;28;20481;-46
2021/12/07 07:55:59;;;;;;;52.63;3.00;;;5.00;99.50;;;;;;5065472;28;20484;-46
2021/12/07 07:58:26;;;;;;;8.73;1.53;;;5.00;99.50;;;;;;5058708;28;20558;-46
2021/12/07 08:00:53;;;;;;;4.03;2.40;;;5.00;99.50;;;;;;5061200;28;20499;-46
2021/12/07 08:03:19;;;;;;;24.27;6.33;;;5.10;99.50;;;;;;5056774;28;20886;-46
2021/12/07 08:05:48;;;;;;;4.13;1.90;;;5.10;99.60;;;;;;5060891;28;21028;-46
2021/12/07 08:08:14;;;;;;;1.60;1.07;;;5.20;99.50;;;;;;5035259;28;20510;-47
2021/12/07 08:10:42;;;;;;;6.80;1.80;;;5.20;99.50;;;;;;5054447;28;20485;-46
2021/12/07 08:13:09;;;;;;;10.57;2.67;;;5.20;99.50;;;;;;5069544;28;20475;-47
2021/12/07 08:15:42;;;;;;;15.57;4.13;;;5.40;99.70;;;;;;5030138;28;20492;-47
2021/12/07 08:18:09;;;;;;;8.17;2.23;;;6.10;99.40;;;;;;5090906;28;21038;-48
2021/12/07 08:20:37;;;;;;;10.60;2.60;;;6.80;99.10;;;;;;5061889;28;20484;-48
2021/12/07 08:23:05;;;;;;;19.07;2.57;;;7.40;98.50;;;;;;5060054;28;20584;-47
2021/12/07 08:25:34;;;;;;;8.13;2.47;;;7.30;97.30;;;;;;5061966;28;20467;-47
2021/12/07 08:28:01;;;;;;;10.53;2.43;;;7.10;97.60;;;;;;5060492;28;20487;-48
2021/12/07 08:30:28;;;;;;;10.03;3.90;;;7.60;98.00;;;;;;5062945;28;20495;-47
2021/12/07 08:32:55;;;;;;;6.13;2.40;;;7.80;97.40;;;;;;5061256;28;20530;-48
2021/12/07 08:35:22;;;;;;;8.20;3.50;;;7.80;96.80;;;;;;5062623;28;20490;-47
2021/12/07 08:37:50;;;;;;;9.73;2.47;;;7.70;96.90;;;;;;5062401;28;20485;-48
2021/12/07 08:40:22;;;;;;;12.93;3.43;;;7.40;97.00;;;;;;5055647;28;21013;-48
2021/12/07 08:42:50;;;;;;;13.23;3.83;;;7.00;97.10;;;;;;5060790;28;20487;-48
2021/12/07 08:45:17;;;;;;;6.70;3.07;;;6.70;97.60;;;;;;5060145;28;20479;-47
2021/12/07 08:47:45;;;;;;;9.13;3.80;;;6.40;97.90;;;;;;5083777;28;20482;-50
2021/12/07 08:50:15;;;;;;;15.30;4.83;;;6.20;98.30;;;;;;5062966;28;20472;-47
2021/12/07 08:52:42;;;;;;;9.33;3.30;;;6.00;98.70;;;;;;5051550;28;20865;-47
2021/12/07 09:00:42;;;;;;;6.27;3.13;;;5.80;99.60;;;;;;5069009;27;20561;-47
2021/12/07 09:03:09;;;;;;;13.03;4.07;;;5.90;99.70;;;;;;5072338;28;21222;-47
2021/12/07 09:05:38;;;;;;;7.23;2.93;;;6.20;99.50;;;;;;5079396;28;20557;-48
2021/12/07 09:08:05;;;;;;;7.83;3.00;;;6.50;99.80;;;;;;5060263;28;20475;-47
2021/12/07 09:10:32;;;;;;;6.40;2.80;;;6.70;99.70;;;;;;5060262;28;20508;-50
2021/12/07 09:13:00;;;;;;;8.30;3.40;;;6.90;98.90;;;;;;5056483;28;20472;-48
2021/12/07 09:15:27;;;;;;;17.17;5.17;;;6.90;98.80;;;;;;5056041;28;20978;-47
2021/12/07 09:17:54;;;;;;;6.00;3.30;;;6.90;98.80;;;;;;5072228;28;20487;-46
2021/12/07 09:20:21;;;;;;;6.60;3.17;;;6.80;98.60;;;;;;5059691;28;20501;-47
2021/12/07 09:22:49;;;;;;;13.47;3.50;;;6.80;98.80;;;;;;5059761;28;20482;-47
2021/12/07 09:25:17;;;;;;;18.43;2.37;;;6.70;98.70;;;;;;5057334;28;20987;-47
2021/12/07 09:27:44;;;;;;;9.03;2.33;;;6.60;98.90;;;;;;5062590;28;20498;-46
2021/12/07 09:30:15;;;;;;;6.77;3.20;;;6.50;99.20;;;;;;5053167;28;20704;-47
2021/12/07 09:32:44;;;;;;;11.00;3.83;;;6.70;99.50;;;;;;5059598;28;20473;-47
2021/12/07 09:35:13;;;;;;;10.17;3.83;;;6.60;98.70;;;;;;5061038;28;20482;-48
2021/12/07 09:37:40;;;;;;;9.63;3.47;;;6.50;98.50;;;;;;5059278;28;20488;-47
2021/12/07 09:40:09;;;;;;;13.17;3.97;;;6.30;98.50;;;;;;5081297;28;20483;-48
2021/12/07 09:42:36;;;;;;;11.43;4.40;;;6.10;98.30;;;;;;5060995;28;20915;-50
2021/12/07 09:45:05;;;;;;;13.73;4.83;;;6.10;98.80;;;;;;5073590;28;20466;-47
2021/12/07 09:47:33;;;;;;;6.57;3.83;;;6.10;99.50;;;;;;5061109;28;20476;-47
2021/12/07 09:50:00;;;;;;;11.27;5.40;;;6.20;99.50;;;;;;5059599;28;20479;-47
2021/12/07 09:52:27;;;;;;;13.33;4.53;;;6.30;99.40;;;;;;5056726;28;20478;-47
2021/12/07 09:54:54;;;;;;;6.80;4.17;;;6.40;98.90;;;;;;5054505;28;20490;-47
2021/12/07 09:57:21;;;;;;;15.50;3.90;;;6.60;99.00;;;;;;5045834;28;20488;-47
2021/12/07 09:59:48;;;;;;;7.13;2.90;;;6.60;98.80;;;;;;5064783;28;20494;-48
2021/12/07 10:02:15;;;;;;;19.30;5.77;;;6.70;98.90;;;;;;5057491;28;20488;-47
2021/12/07 10:04:43;;;;;;;12.80;4.63;;;6.70;99.00;;;;;;5063217;28;20903;-47
2021/12/07 10:07:10;;;;;;;5.33;3.90;;;6.70;99.00;;;;;;5046758;28;20487;-47
2021/12/07 10:09:38;;;;;;;16.13;3.77;;;6.60;98.90;;;;;;5036694;28;20492;-47
2021/12/07 10:12:07;;;;;;;10.13;4.33;;;6.50;99.30;;;;;;5035898;28;20487;-47
2021/12/07 10:14:37;;;;;;;14.40;4.83;;;6.60;99.70;;;;;;5039012;28;20850;-47
2021/12/07 10:17:04;;;;;;;6.87;4.50;;;6.60;99.20;;;;;;5049400;28;20576;-47
2021/12/07 10:19:35;;;;;;;11.23;4.50;;;6.60;99.40;;;;;;5065636;28;20956;-47
2021/12/07 10:22:07;;;;;;;10.70;4.57;;;6.60;99.40;;;;;;5057056;28;20512;-47
2021/12/07 10:24:38;;;;;;;6.70;5.13;;;6.50;99.40;;;;;;5058668;28;20489;-47
2021/12/07 10:27:05;;;;;;;5.20;3.00;;;6.40;99.40;;;;;;5053506;28;20489;-46
2021/12/07 10:29:33;;;;;;;8.43;5.10;;;6.40;99.40;;;;;;5052132;28;20504;-47
2021/12/07 10:32:02;;;;;;;6.93;3.90;;;6.50;99.50;;;;;;5060849;28;21270;-47
2021/12/07 10:34:32;;;;;;;17.63;4.47;;;6.50;99.60;;;;;;5051951;28;20523;-48
2021/12/07 10:37:09;;;;;;;8.13;4.30;;;6.60;99.70;;;;;;5053016;28;20494;-50
2021/12/07 10:39:39;;;;;;;20.10;4.40;;;6.70;99.90;;;;;;5077877;28;20575;-48
2021/12/07 10:42:08;;;;;;;6.23;2.60;;;6.70;99.50;;;;;;5055579;28;20483;-48
2021/12/07 10:44:37;;;;;;;6.43;3.60;;;6.90;99.40;;;;;;5063441;28;20484;-47
2021/12/07 10:47:04;;;;;;;11.50;4.43;;;7.00;99.60;;;;;;5060576;28;20500;-47
2021/12/07 10:49:38;;;;;;;12.47;3.13;;;7.00;98.90;;;;;;5054987;28;20503;-48
2021/12/07 10:52:24;;;;;;;9.23;4.90;;;6.80;98.60;;;;;;5048914;28;20492;-47
2021/12/07 10:54:58;;;;;;;5.77;3.00;;;6.60;98.80;;;;;;5061166;28;21041;-48
2021/12/07 10:57:29;;;;;;;12.33;4.30;;;6.50;99.10;;;;;;5060801;28;21024;-47
2021/12/07 11:00:05;;;;;;;7.23;2.70;;;6.40;99.40;;;;;;5061734;28;20847;-48
2021/12/07 11:02:34;;;;;;;4.30;1.80;;;6.40;99.40;;;;;;5032934;28;21462;-47
2021/12/07 11:05:03;;;;;;;18.27;5.90;;;6.40;99.00;;;;;;5058073;28;20472;-47
2021/12/07 11:07:31;;;;;;;11.97;3.00;;;6.40;99.10;;;;;;5063039;28;20483;-48
2021/12/07 11:10:04;;;;;;;14.40;3.10;;;6.50;99.30;;;;;;5070122;28;20480;-47
2021/12/07 11:12:38;;;;;;;6.80;3.27;;;6.60;99.70;;;;;;5089799;28;20482;-47
2021/12/07 11:15:13;;;;;;;15.03;3.43;;;6.60;99.60;;;;;;5066459;28;20946;-48
2021/12/07 11:17:40;;;;;;;5.73;3.27;;;6.60;99.30;;;;;;5074773;28;21020;-47
2021/12/07 11:20:08;;;;;;;7.20;2.97;;;6.60;99.20;;;;;;5076451;28;20491;-47
2021/12/07 11:22:39;;;;;;;13.83;4.03;;;6.80;99.20;;;;;;5078648;28;20487;-47
2021/12/07 11:25:07;;;;;;;9.87;3.43;;;6.80;99.20;;;;;;5074980;28;20495;-48
2021/12/07 11:30:21;;;;;;;6.93;3.33;;;7.10;99.30;;;;;;5071140;28;20608;-47
2021/12/07 11:32:51;;;;;;;7.83;4.03;;;7.30;99.30;;;;;;5050552;28;20470;-47
2021/12/07 11:35:21;;;;;;;7.13;2.53;;;7.30;99.10;;;;;;5051400;28;20488;-47
2021/12/07 11:37:50;;;;;;;3.70;1.27;;;7.30;98.70;;;;;;5078898;28;20992;-47
2021/12/07 11:40:24;;;;;;;6.83;2.50;;;7.20;98.10;;;;;;5063284;28;20531;-48
2021/12/07 11:42:51;;;;;;;14.43;2.13;;;7.10;98.20;;;;;;5062966;28;20492;-47
2021/12/07 11:45:20;;;;;;;7.80;2.70;;;7.10;98.30;;;;;;5039501;28;20487;-47
2021/12/07 11:47:49;;;;;;;6.33;2.97;;;7.00;98.50;;;;;;5046429;28;20490;-47
2021/12/07 11:50:22;;;;;;;8.73;3.57;;;7.00;98.30;;;;;;5065632;28;20476;-48
2021/12/07 11:52:52;;;;;;;8.80;2.83;;;6.80;98.10;;;;;;5066240;28;20504;-47
2021/12/07 11:55:21;;;;;;;9.40;3.23;;;6.90;98.40;;;;;;5062118;28;20489;-47
2021/12/07 11:57:48;;;;;;;12.60;4.10;;;6.80;98.70;;;;;;5039075;28;20848;-47
2021/12/07 12:00:19;;;;;;;5.97;2.60;;;6.80;98.40;;;;;;5052757;28;20469;-47
2021/12/07 12:02:46;;;;;;;8.23;2.20;;;7.00;99.10;;;;;;5051751;28;20826;-48
2021/12/07 12:05:13;;;;;;;12.00;2.57;;;7.10;99.20;;;;;;5062425;28;20477;-48
2021/12/07 12:07:41;;;;;;;8.53;2.83;;;7.20;99.30;;;;;;5046056;28;20842;-47
2021/12/07 12:10:12;;;;;;;3.60;2.20;;;7.40;98.90;;;;;;5050254;28;20588;-47
2021/12/07 12:12:56;;;;;;;4.97;2.30;;;7.50;98.70;;;;;;5036845;28;21047;-47
2021/12/07 12:15:39;;;;;;;8.73;2.30;;;7.50;98.00;;;;;;5039857;28;20494;-47
2021/12/07 12:18:15;;;;;;;10.63;2.73;;;7.40;98.20;;;;;;5052670;28;20473;-47
2021/12/07 12:21:00;;;;;;;6.77;1.90;;;7.40;97.70;;;;;;5022006;28;20483;-47
2021/12/07 12:23:36;;;;;;;2.47;1.90;;;7.20;97.80;;;;;;5032412;28;20490;-46
2021/12/07 12:26:08;;;;;;;7.33;3.07;;;7.20;98.10;;;;;;5061028;28;21024;-47
2021/12/07 12:28:37;;;;;;;6.70;2.87;;;7.20;97.80;;;;;;5044790;28;20481;-47
2021/12/07 12:31:05;;;;;;;4.10;2.33;;;7.20;98.00;;;;;;5059899;28;20492;-47
2021/12/07 12:33:55;;;;;;;9.30;3.33;;;7.20;98.50;;;;;;5069744;28;20561;-47
2021/12/07 12:36:25;;;;;;;20.43;3.00;;;7.30;98.50;;;;;;5050596;28;21081;-48
2021/12/07 12:38:58;;;;;;;10.57;2.90;;;7.50;99.40;;;;;;5058093;28;20821;-47
2021/12/07 12:41:27;;;;;;;5.17;2.17;;;7.50;98.10;;;;;;5078257;28;20483;-48
2021/12/07 12:43:55;;;;;;;8.50;3.03;;;7.30;97.70;;;;;;5057375;28;20508;-48
2021/12/07 12:46:24;;;;;;;4.87;2.30;;;7.20;97.50;;;;;;5061820;28;20478;-50
2021/12/07 12:48:53;;;;;;;5.30;3.00;;;7.10;97.60;;;;;;5062253;28;20489;-47
2021/12/07 12:51:22;;;;;;;5.77;3.50;;;7.10;97.50;;;;;;5052952;28;20489;-47
2021/12/07 12:53:50;;;;;;;4.47;3.53;;;7.10;97.90;;;;;;5061422;28;20590;-47
2021/12/07 12:56:19;;;;;;;4.50;2.73;;;7.20;98.10;;;;;;5060214;28;20496;-47
2021/12/07 12:58:50;;;;;;;4.50;3.53;;;7.30;97.90;;;;;;5071707;28;21247;-47
2021/12/07 13:01:24;;;;;;;7.13;3.20;;;7.30;97.80;;;;;;5055005;28;20468;-47
2021/12/07 13:04:08;;;;;;;8.57;3.77;;;7.30;98.20;;;;;;5061572;28;20491;-48
2021/12/07 13:06:46;;;;;;;8.30;3.80;;;7.20;98.20;;;;;;5043531;28;20487;-47
2021/12/07 13:09:27;;;;;;;9.33;4.37;;;7.40;98.30;;;;;;5050063;28;20494;-47
2021/12/07 13:11:56;;;;;;;6.77;3.60;;;7.30;97.60;;;;;;5041460;28;20552;-48
2021/12/07 13:14:35;;;;;;;8.57;3.27;;;7.30;97.60;;;;;;5056568;28;20479;-47
2021/12/07 13:17:07;;;;;;;8.50;3.63;;;7.40;97.90;;;;;;5065760;28;20518;-47
2021/12/07 13:20:12;;;;;;;4.23;3.93;;;7.20;97.50;;;;;;5049966;28;20473;-47
2021/12/07 13:22:43;;;;;;;4.43;3.20;;;7.30;98.00;;;;;;5043720;28;20515;-47
2021/12/07 13:25:12;;;;;;;4.00;2.70;;;7.20;97.80;;;;;;5059144;28;21266;-47
2021/12/07 13:27:56;;;;;;;6.33;3.57;;;7.20;97.70;;;;;;5068636;28;20964;-47
2021/12/07 13:30:24;;;;;;;6.53;3.00;;;7.10;97.90;;;;;;5043661;28;20481;-47
2021/12/07 13:33:04;;;;;;;6.13;3.10;;;7.20;98.50;;;;;;5062018;28;20480;-48
2021/12/07 13:35:33;;;;;;;7.70;2.60;;;7.30;98.30;;;;;;5057452;28;20949;-47
2021/12/07 13:38:15;;;;;;;3.93;2.43;;;7.40;98.30;;;;;;5054294;28;20500;-47
2021/12/07 13:40:42;;;;;;;3.33;2.47;;;7.80;98.10;;;;;;5059243;28;20937;-47
2021/12/07 13:43:09;;;;;;;6.40;3.20;;;7.90;97.50;;;;;;5050095;28;20491;-47
2021/12/07 13:45:37;;;;;;;7.47;2.83;;;8.00;96.90;;;;;;5078098;28;20486;-47
2021/12/07 13:48:04;;;;;;;7.90;3.93;;;8.10;97.00;;;;;;5055309;28;20487;-48
2021/12/07 13:50:33;;;;;;;7.17;2.50;;;8.00;96.80;;;;;;5055259;28;20512;-48
2021/12/07 13:53:00;;;;;;;2.97;2.20;;;8.00;97.20;;;;;;5061699;28;20513;-48
2021/12/07 13:55:29;;;;;;;9.07;2.70;;;7.90;96.60;;;;;;5059201;28;20484;-47
2021/12/07 13:57:58;;;;;;;8.83;2.77;;;7.80;96.70;;;;;;5061845;28;20785;-48
2021/12/07 14:00:27;;;;;;;5.60;2.60;;;7.60;96.70;;;;;;5056294;28;20484;-47
2021/12/07 14:02:58;;;;;;;3.73;2.50;;;7.30;96.50;;;;;;5050620;28;20911;-47
2021/12/07 14:05:28;;;;;;;6.00;2.90;;;7.10;96.40;;;;;;5046463;28;20954;-47
2021/12/07 14:07:57;;;;;;;6.57;1.73;;;7.10;96.90;;;;;;5055140;28;20487;-48
2021/12/07 14:10:27;;;;;;;5.03;2.30;;;7.20;97.00;;;;;;5069769;28;20488;-47
2021/12/07 14:12:55;;;;;;;4.10;2.70;;;7.20;97.10;;;;;;5068708;28;20489;-47
2021/12/07 14:15:29;;;;;;;4.43;1.50;;;7.20;97.00;;;;;;5053003;28;20478;-47
2021/12/07 14:18:00;;;;;;;4.63;1.93;;;7.20;96.90;;;;;;5067815;28;21202;-48
2021/12/07 14:20:33;;;;;;;5.10;2.30;;;7.20;97.20;;;;;;5060200;28;20492;-47
2021/12/07 14:23:01;;;;;;;5.07;2.33;;;7.20;97.00;;;;;;5061142;28;20484;-48
2021/12/07 14:25:28;;;;;;;3.13;1.57;;;7.00;97.00;;;;;;5053927;28;20491;-47
2021/12/07 14:27:56;;;;;;;7.00;2.87;;;7.10;97.50;;;;;;5056775;28;20983;-48
2021/12/07 14:30:22;;;;;;;5.73;1.53;;;7.20;97.50;;;;;;5060180;28;21082;-47
2021/12/07 14:32:49;;;;;;;4.00;2.33;;;7.10;97.30;;;;;;5061041;28;20551;-47
2021/12/07 14:35:20;;;;;;;5.83;3.47;;;7.10;97.10;;;;;;5054538;28;21003;-48
2021/12/07 14:37:46;;;;;;;3.20;1.80;;;7.10;97.20;;;;;;5057553;28;20488;-47
2021/12/07 14:40:13;;;;;;;5.83;2.40;;;7.20;97.20;;;;;;5070953;28;20508;-47